createdAt,value
2019-04-16T00:02:33.631Z,28.70
2019-04-16T00:05:27.513Z,28.90
2019-04-16T00:07:58.960Z,28.80
2019-04-16T00:10:44.853Z,28.90
2019-04-16T00:13:27.903Z,29.10
2019-04-16T00:16:00.791Z,29.20
2019-04-16T00:18:32.120Z,29.30
2019-04-16T00:21:21.071Z,29.50
2019-04-16T00:24:11.367Z,29.80
2019-04-16T00:26:42.804Z,30.00
2019-04-16T00:29:13.911Z,30.00
2019-04-16T00:31:49.783Z,30.50
2019-04-16T00:34:20.816Z,30.50
2019-04-16T00:36:51.920Z,30.80
2019-04-16T00:39:24.800Z,31.00
2019-04-16T00:41:55.516Z,31.20
2019-04-16T00:44:26.603Z,31.20
2019-04-16T00:46:57.612Z,31.40
2019-04-16T00:49:28.584Z,31.50
2019-04-16T00:51:59.881Z,31.60
2019-04-16T00:54:31.211Z,31.70
2019-04-16T00:57:02.565Z,31.90
2019-04-16T00:59:33.287Z,31.90
2019-04-16T01:02:04.521Z,31.80
2019-04-16T01:04:35.805Z,31.90
2019-04-16T01:07:06.804Z,31.80
2019-04-16T01:09:37.837Z,31.70
2019-04-16T01:12:08.878Z,31.90
2019-04-16T01:14:40.003Z,31.80
2019-04-16T01:17:10.980Z,31.90
2019-04-16T01:19:41.907Z,31.90
2019-04-16T01:22:15.997Z,31.70
2019-04-16T01:24:51.601Z,31.90
2019-04-16T01:27:21.064Z,31.70
2019-04-16T01:29:52.132Z,31.80
2019-04-16T01:32:42.660Z,31.80
2019-04-16T01:35:30.911Z,31.80
2019-04-16T01:38:22.616Z,31.80
2019-04-16T01:40:59.973Z,31.90
2019-04-16T01:43:31.111Z,31.90
2019-04-16T01:46:02.594Z,31.90
2019-04-16T01:48:38.646Z,32.10
2019-04-16T01:51:06.652Z,32.10
2019-04-16T01:53:37.647Z,32.20
2019-04-16T01:56:08.968Z,32.10
2019-04-16T01:58:39.915Z,32.20
2019-04-16T02:01:11.225Z,32.30
2019-04-16T02:03:43.603Z,32.10
2019-04-16T02:06:15.064Z,32.10
2019-04-16T02:08:45.895Z,32.20
2019-04-16T02:11:16.968Z,32.30
2019-04-16T02:13:48.167Z,32.20
2019-04-16T02:16:22.325Z,32.30
2019-04-16T02:18:52.843Z,32.30
2019-04-16T02:21:24.411Z,32.40
2019-04-16T02:23:55.580Z,32.40
2019-04-16T02:26:26.522Z,32.60
2019-04-16T02:28:58.946Z,32.50
2019-04-16T02:31:30.495Z,32.50
2019-04-16T02:34:02.573Z,32.50
2019-04-16T02:36:33.908Z,32.60
2019-04-16T02:39:07.681Z,32.50
2019-04-16T02:41:39.171Z,32.60
2019-04-16T02:44:14.077Z,32.70
2019-04-16T02:46:43.428Z,32.60
2019-04-16T02:49:14.625Z,32.70
2019-04-16T02:52:00.173Z,32.70
2019-04-16T02:54:53.272Z,32.90
2019-04-16T02:57:34.492Z,32.90
2019-04-16T03:00:17.584Z,32.80
2019-04-16T03:02:53.868Z,32.90
2019-04-16T03:05:33.329Z,33.00
2019-04-16T03:08:05.205Z,33.00
2019-04-16T03:10:37.504Z,33.00
2019-04-16T03:13:08.378Z,33.10
2019-04-16T03:16:02.774Z,33.10
2019-04-16T03:18:53.207Z,33.10
2019-04-16T03:21:27.237Z,33.10
2019-04-16T03:23:57.162Z,33.20
2019-04-16T03:26:27.807Z,33.30
2019-04-16T03:28:59.439Z,33.30
2019-04-16T03:31:30.542Z,33.40
2019-04-16T03:34:02.611Z,33.40
2019-04-16T03:36:33.824Z,33.50
2019-04-16T03:39:12.254Z,33.50
2019-04-16T03:41:39.327Z,33.50
2019-04-16T03:44:10.391Z,33.70
2019-04-16T03:46:46.093Z,33.60
2019-04-16T03:49:14.514Z,33.50
2019-04-16T03:51:45.904Z,33.40
2019-04-16T03:54:19.305Z,33.40
2019-04-16T03:56:49.235Z,33.40
2019-04-16T03:59:20.443Z,33.40
2019-04-16T04:01:51.683Z,33.40
2019-04-16T04:04:22.775Z,33.40
2019-04-16T04:06:54.075Z,33.40
2019-04-16T04:09:24.992Z,33.40
2019-04-16T04:11:56.024Z,33.40
2019-04-16T04:14:27.176Z,33.40
2019-04-16T04:16:58.505Z,33.50
2019-04-16T04:19:29.728Z,33.50
2019-04-16T04:22:00.872Z,33.50
2019-04-16T04:24:32.225Z,33.50
2019-04-16T04:27:03.525Z,33.60
2019-04-16T04:29:34.616Z,33.40
2019-04-16T04:32:05.633Z,33.40
2019-04-16T04:34:36.927Z,33.20
2019-04-16T04:37:08.320Z,33.30
2019-04-16T04:39:44.266Z,33.20
2019-04-16T04:42:14.640Z,33.00
2019-04-16T04:44:47.164Z,32.80
2019-04-16T04:47:20.062Z,32.50
2019-04-16T04:49:51.055Z,32.30
2019-04-16T04:52:22.587Z,31.80
2019-04-16T04:54:55.400Z,31.60
2019-04-16T04:57:28.428Z,31.30
2019-04-16T05:00:00.595Z,31.00
2019-04-16T05:02:33.244Z,30.30
2019-04-16T05:05:25.685Z,30.00
2019-04-16T05:07:59.722Z,30.20
2019-04-16T05:10:28.371Z,29.70
2019-04-16T05:12:59.470Z,29.70
2019-04-16T05:15:30.366Z,29.60
2019-04-16T05:18:01.680Z,29.30
2019-04-16T05:20:32.839Z,29.00
2019-04-16T05:23:03.797Z,28.70
2019-04-16T05:25:35.891Z,27.70
2019-04-16T05:28:11.690Z,27.20
2019-04-16T05:30:40.167Z,26.90
2019-04-16T05:33:11.384Z,26.60
2019-04-16T05:35:42.931Z,26.30
2019-04-16T05:38:14.005Z,26.30
2019-04-16T05:40:45.308Z,25.90
2019-04-16T05:43:16.178Z,25.60
2019-04-16T05:45:47.181Z,25.20
2019-04-16T05:48:18.632Z,25.00
2019-04-16T05:50:50.947Z,25.00
2019-04-16T05:53:22.177Z,24.80
2019-04-16T05:56:01.741Z,24.80
2019-04-16T05:58:32.951Z,24.50
2019-04-16T06:01:10.500Z,24.50
2019-04-16T06:03:41.193Z,24.30
2019-04-16T06:06:12.580Z,24.50
2019-04-16T06:08:43.487Z,23.80
2019-04-16T06:11:27.664Z,23.80
2019-04-16T06:14:26.159Z,23.80
2019-04-16T06:17:18.956Z,23.70
2019-04-16T06:20:01.683Z,23.60
2019-04-16T06:22:47.845Z,23.40
2019-04-16T06:25:56.191Z,23.00
2019-04-16T06:28:44.467Z,22.90
2019-04-16T06:31:36.293Z,23.10
2019-04-16T06:34:18.367Z,23.30
2019-04-16T06:37:09.471Z,22.70
2019-04-16T06:40:01.844Z,22.30
2019-04-16T06:42:55.419Z,21.70
2019-04-16T06:45:37.134Z,21.90
2019-04-16T06:48:13.165Z,21.90
2019-04-16T06:51:01.111Z,22.20
2019-04-16T06:53:38.375Z,22.30
2019-04-16T06:56:31.660Z,21.60
2019-04-16T06:59:37.370Z,21.20
2019-04-16T07:02:43.023Z,21.40
2019-04-16T07:05:37.231Z,21.30
2019-04-16T07:08:20.980Z,21.40
2019-04-16T07:10:57.151Z,21.30
2019-04-16T07:13:28.408Z,20.80
2019-04-16T07:15:59.623Z,20.70
2019-04-16T07:18:31.104Z,20.90
2019-04-16T07:21:02.325Z,20.50
2019-04-16T07:23:33.223Z,20.60
2019-04-16T07:26:04.705Z,20.30
2019-04-16T07:28:45.498Z,20.50
2019-04-16T07:31:33.951Z,20.80
2019-04-16T07:34:21.663Z,20.70
2019-04-16T07:37:14.851Z,20.50
2019-04-16T07:40:17.024Z,20.30
2019-04-16T07:43:10.484Z,20.00
2019-04-16T07:45:52.059Z,19.10
2019-04-16T07:48:47.903Z,18.50
2019-04-16T07:51:27.035Z,18.50
2019-04-16T07:54:21.798Z,18.80
2019-04-16T07:56:55.096Z,19.00
2019-04-16T07:59:26.100Z,18.50
2019-04-16T08:01:56.963Z,18.70
2019-04-16T08:04:29.213Z,18.60
2019-04-16T08:07:01.495Z,17.30
2019-04-16T08:09:33.716Z,17.50
2019-04-16T08:12:10.855Z,17.40
2019-04-16T08:14:38.665Z,17.30
2019-04-16T08:17:10.119Z,17.00
2019-04-16T08:19:41.132Z,17.30
2019-04-16T08:22:15.521Z,17.50
2019-04-16T08:24:47.744Z,17.30
2019-04-16T08:27:19.461Z,17.40
2019-04-16T08:29:50.668Z,17.00
2019-04-16T08:32:21.840Z,17.10
2019-04-16T08:34:52.995Z,17.20
2019-04-16T08:37:24.084Z,17.20
2019-04-16T08:39:55.203Z,16.80
2019-04-16T08:42:29.334Z,16.20
2019-04-16T08:44:58.722Z,16.60
2019-04-16T08:47:29.875Z,16.50
2019-04-16T08:50:01.059Z,17.00
2019-04-16T08:52:32.155Z,16.30
2019-04-16T08:55:03.327Z,15.00
2019-04-16T08:57:34.571Z,15.50
2019-04-16T09:00:08.027Z,15.30
2019-04-16T09:02:39.147Z,15.20
2019-04-16T09:05:11.675Z,15.60
2019-04-16T09:07:43.127Z,15.60
2019-04-16T09:10:23.497Z,14.80
2019-04-16T09:13:02.965Z,14.90
2019-04-16T09:15:31.423Z,14.90
2019-04-16T09:18:30.415Z,14.80
2019-04-16T09:21:03.047Z,14.60
2019-04-16T09:23:33.705Z,13.90
2019-04-16T09:26:23.990Z,14.30
2019-04-16T09:29:23.533Z,14.80
2019-04-16T09:32:14.820Z,14.30
2019-04-16T09:35:10.984Z,13.90
2019-04-16T09:38:13.081Z,13.70
2019-04-16T09:41:21.846Z,13.60
2019-04-16T09:43:57.263Z,13.40
2019-04-16T09:46:49.838Z,13.50
2019-04-16T09:49:04.792Z,13.10
2019-04-16T09:51:35.881Z,13.10
2019-04-16T09:54:12.535Z,12.80
2019-04-16T09:56:39.719Z,13.40
2019-04-16T09:59:44.598Z,13.10
2019-04-16T10:02:27.988Z,12.60
2019-04-16T10:04:59.288Z,12.90
2019-04-16T10:07:31.283Z,12.80
2019-04-16T10:10:03.454Z,12.80
2019-04-16T10:12:34.870Z,13.10
2019-04-16T10:15:08.229Z,12.70
2019-04-16T10:17:39.294Z,12.70
2019-04-16T10:20:10.462Z,12.40
2019-04-16T10:22:41.528Z,12.70
2019-04-16T10:25:14.596Z,12.40
2019-04-16T10:28:10.331Z,12.40
2019-04-16T10:30:49.327Z,12.50
2019-04-16T10:33:20.047Z,12.50
2019-04-16T10:35:51.116Z,12.80
2019-04-16T10:38:33.448Z,12.40
2019-04-16T10:41:07.435Z,12.10
2019-04-16T10:44:09.293Z,12.10
2019-04-16T10:46:48.518Z,12.20
2019-04-16T10:49:53.601Z,12.20
2019-04-16T10:52:42.095Z,12.20
2019-04-16T10:55:40.823Z,12.70
2019-04-16T10:58:49.256Z,12.40
2019-04-16T11:01:35.161Z,11.70
2019-04-16T11:04:14.739Z,12.10
2019-04-16T11:06:47.992Z,12.20
2019-04-16T11:09:19.892Z,12.00
2019-04-16T11:15:21.694Z,12.00
2019-04-16T11:17:52.986Z,12.30
2019-04-16T11:20:24.164Z,12.70
2019-04-16T11:22:55.539Z,12.30
2019-04-16T11:25:26.655Z,12.30
2019-04-16T11:27:57.815Z,11.70
2019-04-16T11:30:37.742Z,12.20
2019-04-16T11:33:08.959Z,12.70
2019-04-16T11:35:40.721Z,12.60
2019-04-16T11:38:11.707Z,12.60
2019-04-16T11:40:42.796Z,12.50
2019-04-16T11:43:14.463Z,12.50
2019-04-16T11:45:45.386Z,12.50
2019-04-16T11:48:16.488Z,12.30
2019-04-16T11:50:47.667Z,12.10
2019-04-16T11:53:19.307Z,11.90
2019-04-16T11:55:50.090Z,12.30
2019-04-16T11:58:52.376Z,12.50
2019-04-16T12:01:29.613Z,12.30
2019-04-16T12:04:22.587Z,12.60
2019-04-16T12:07:11.251Z,12.60
2019-04-16T12:10:01.372Z,12.70
2019-04-16T12:12:44.570Z,12.70
2019-04-16T12:15:40.644Z,12.70
2019-04-16T12:18:31.898Z,12.50
2019-04-16T12:21:11.513Z,12.30
2019-04-16T12:23:52.296Z,12.10
2019-04-16T12:26:48.762Z,12.00
2019-04-16T12:29:33.322Z,12.20
2019-04-16T12:32:22.074Z,12.20
2019-04-16T12:35:10.381Z,11.80
2019-04-16T12:37:59.284Z,11.60
2019-04-16T12:40:56.637Z,11.50
2019-04-16T12:43:52.719Z,11.00
2019-04-16T12:46:46.228Z,11.40
2019-04-16T12:49:34.576Z,11.30
2019-04-16T12:52:30.692Z,11.30
2019-04-16T12:55:19.329Z,10.70
2019-04-16T12:58:03.931Z,10.90
2019-04-16T13:01:08.711Z,11.10
2019-04-16T13:03:56.750Z,11.20
2019-04-16T13:06:39.082Z,11.00
2019-04-16T13:09:30.395Z,10.60
2019-04-16T13:12:11.264Z,11.20
2019-04-16T13:15:01.766Z,10.90
2019-04-16T13:17:54.700Z,10.90
2019-04-16T13:20:48.028Z,10.50
2019-04-16T13:23:50.924Z,10.40
2019-04-16T13:26:30.856Z,10.50
2019-04-16T13:29:04.132Z,10.60
2019-04-16T13:31:36.396Z,10.40
2019-04-16T13:34:08.247Z,10.10
2019-04-16T13:36:39.624Z,10.10
2019-04-16T13:39:42.652Z,9.80
2019-04-16T13:42:14.800Z,9.80
2019-04-16T13:44:48.748Z,9.80
2019-04-16T13:47:19.940Z,10.20
2019-04-16T13:49:55.704Z,10.60
2019-04-16T13:52:26.608Z,10.70
2019-04-16T13:55:18.355Z,10.60
2019-04-16T13:58:08.367Z,10.60
2019-04-16T14:00:46.700Z,10.50
2019-04-16T14:03:20.819Z,10.40
2019-04-16T14:05:53.087Z,10.50
2019-04-16T14:08:23.772Z,10.50
2019-04-16T14:10:55.876Z,10.20
2019-04-16T14:13:27.968Z,10.00
2019-04-16T14:15:59.352Z,10.10
2019-04-16T14:18:32.694Z,10.40
2019-04-16T14:21:03.936Z,9.70
2019-04-16T14:23:35.051Z,9.60
2019-04-16T14:26:06.432Z,10.00
2019-04-16T14:28:51.082Z,10.10
2019-04-16T14:31:15.797Z,10.10
2019-04-16T14:34:11.631Z,10.30
2019-04-16T14:36:42.888Z,11.10
2019-04-16T14:39:33.247Z,11.30
2019-04-16T14:42:04.620Z,12.20
2019-04-16T14:44:41.075Z,13.10
2019-04-16T14:47:12.181Z,13.30
2019-04-16T14:49:43.492Z,13.50
2019-04-16T14:52:14.260Z,13.60
2019-04-16T14:54:58.521Z,14.60
2019-04-16T14:57:29.812Z,15.20
2019-04-16T15:00:27.492Z,15.10
2019-04-16T15:03:03.736Z,15.20
2019-04-16T15:05:52.660Z,15.40
2019-04-16T15:08:34.471Z,15.80
2019-04-16T15:11:17.748Z,16.20
2019-04-16T15:14:00.726Z,16.00
2019-04-16T15:16:45.756Z,16.80
2019-04-16T15:19:28.517Z,17.10
2019-04-16T15:22:18.108Z,17.00
2019-04-16T15:25:00.169Z,17.40
2019-04-16T15:27:50.128Z,17.60
2019-04-16T15:30:40.344Z,17.20
2019-04-16T15:33:27.428Z,17.50
2019-04-16T15:36:06.064Z,17.80
2019-04-16T15:38:46.688Z,17.70
2019-04-16T15:41:36.836Z,17.90
2019-04-16T15:44:32.126Z,17.90
2019-04-16T15:47:31.868Z,17.80
2019-04-16T15:50:20.656Z,17.80
2019-04-16T15:53:16.528Z,18.10
2019-04-16T15:56:06.904Z,18.00
2019-04-16T15:58:50.095Z,18.40
2019-04-16T16:01:29.125Z,18.60
2019-04-16T16:04:22.581Z,18.70
2019-04-16T16:06:59.448Z,18.60
2019-04-16T16:09:52.612Z,18.80
2019-04-16T16:12:28.302Z,19.40
2019-04-16T16:15:00.512Z,19.10
2019-04-16T16:17:31.624Z,19.30
2019-04-16T16:20:03.120Z,19.40
2019-04-16T16:22:35.275Z,19.40
2019-04-16T16:25:08.229Z,19.40
2019-04-16T16:27:43.895Z,19.40
2019-04-16T16:30:15.045Z,19.80
2019-04-16T16:32:44.816Z,19.90
2019-04-16T16:35:17.801Z,20.30
2019-04-16T16:37:48.860Z,20.20
2019-04-16T16:40:20.124Z,20.30
2019-04-16T16:42:51.248Z,20.70
2019-04-16T16:45:24.691Z,20.90
2019-04-16T16:47:55.877Z,21.00
2019-04-16T16:50:26.880Z,21.50
2019-04-16T16:53:04.358Z,21.10
2019-04-16T16:55:56.932Z,21.30
2019-04-16T16:58:46.523Z,21.70
2019-04-16T17:01:38.776Z,22.00
2019-04-16T17:04:21.324Z,22.30
2019-04-16T17:06:52.248Z,22.50
2019-04-16T17:09:33.584Z,22.70
2019-04-16T17:12:04.896Z,23.00
2019-04-16T17:14:37.783Z,23.00
2019-04-16T17:17:13.821Z,23.20
2019-04-16T17:19:41.280Z,23.40
2019-04-16T17:22:14.727Z,23.60
2019-04-16T17:24:44.860Z,23.60
2019-04-16T17:27:16.039Z,23.70
2019-04-16T17:29:49.975Z,23.80
2019-04-16T17:32:20.440Z,23.80
2019-04-16T17:34:51.772Z,24.00
2019-04-16T17:37:27.790Z,24.10
2019-04-16T17:39:58.781Z,24.20
2019-04-16T17:42:38.861Z,24.30
2019-04-16T17:45:28.203Z,24.50
2019-04-16T17:48:24.964Z,24.50
2019-04-16T17:51:13.971Z,24.60
2019-04-16T17:54:07.564Z,24.60
2019-04-16T17:56:48.336Z,24.80
2019-04-16T17:59:44.060Z,24.90
2019-04-16T18:02:37.008Z,25.00
2019-04-16T18:05:27.876Z,25.10
2019-04-16T18:08:24.772Z,25.30
2019-04-16T18:11:15.219Z,25.40
2019-04-16T18:14:04.393Z,25.50
2019-04-16T18:16:55.851Z,25.70
2019-04-16T18:19:58.568Z,25.80
2019-04-16T18:22:35.145Z,25.80
2019-04-16T18:25:28.802Z,26.00
2019-04-16T18:28:05.352Z,26.10
2019-04-16T18:30:49.023Z,26.10
2019-04-16T18:33:45.732Z,26.20
2019-04-16T18:36:41.764Z,26.30
2019-04-16T18:39:41.273Z,26.30
2019-04-16T18:42:34.128Z,26.40
2019-04-16T18:45:18.987Z,26.50
2019-04-16T18:48:04.524Z,26.60
2019-04-16T18:50:33.256Z,26.80
2019-04-16T18:53:09.572Z,26.90
2019-04-16T18:55:37.692Z,27.10
2019-04-16T18:58:09.068Z,27.10
2019-04-16T19:00:44.180Z,27.30
2019-04-16T19:03:15.925Z,27.50
2019-04-16T19:05:47.687Z,27.50
2019-04-16T19:08:19.941Z,27.60
2019-04-16T19:10:51.848Z,27.70
2019-04-16T19:13:22.860Z,27.90
2019-04-16T19:15:54.281Z,27.90
2019-04-16T19:18:25.748Z,28.10
2019-04-16T19:20:56.744Z,28.20
2019-04-16T19:23:27.589Z,28.40
2019-04-16T19:25:59.085Z,28.40
2019-04-16T19:28:30.559Z,28.40
2019-04-16T19:31:02.879Z,28.40
2019-04-16T19:33:38.130Z,28.40
2019-04-16T19:36:07.740Z,28.50
2019-04-16T19:38:39.456Z,28.50
2019-04-16T19:41:12.188Z,28.50
2019-04-16T19:43:43.741Z,28.80
2019-04-16T19:46:15.584Z,29.50
2019-04-16T19:48:47.635Z,29.50
2019-04-16T19:51:19.841Z,29.50
2019-04-16T19:53:50.975Z,29.40
2019-04-16T19:56:22.343Z,29.40
2019-04-16T19:58:53.881Z,29.70
2019-04-16T20:01:25.204Z,29.80
2019-04-16T20:07:42.135Z,29.80
2019-04-16T20:10:14.232Z,29.70
2019-04-16T20:12:46.368Z,29.90
2019-04-16T20:15:17.852Z,30.00
2019-04-16T20:17:48.983Z,30.00
2019-04-16T20:20:20.499Z,30.00
2019-04-16T20:22:52.967Z,30.00
2019-04-16T20:25:26.476Z,30.00
2019-04-16T20:27:58.435Z,30.40
2019-04-16T20:30:29.780Z,30.30
2019-04-16T20:33:00.752Z,30.40
2019-04-16T20:35:31.932Z,30.50
2019-04-16T20:38:03.371Z,30.40
2019-04-16T20:40:34.796Z,30.50
2019-04-16T20:43:05.958Z,30.70
2019-04-16T20:45:38.707Z,30.70
2019-04-16T20:48:12.462Z,30.80
2019-04-16T20:50:43.131Z,31.50
2019-04-16T20:53:14.632Z,31.10
2019-04-16T20:55:47.423Z,31.20
2019-04-16T20:58:18.568Z,31.20
2019-04-16T21:00:51.423Z,31.20
2019-04-16T21:03:22.902Z,31.10
2019-04-16T21:05:58.868Z,31.40
2019-04-16T21:08:27.285Z,31.30
2019-04-16T21:10:59.446Z,31.30
2019-04-16T21:13:30.520Z,31.40
2019-04-16T21:16:02.862Z,31.30
2019-04-16T21:18:33.844Z,31.40
2019-04-16T21:21:04.683Z,31.30
2019-04-16T21:23:36.410Z,31.30
2019-04-16T21:26:07.482Z,31.30
2019-04-16T21:28:53.815Z,31.20
2019-04-16T21:31:29.443Z,31.30
2019-04-16T21:34:24.924Z,31.30
2019-04-16T21:37:14.048Z,31.60
2019-04-16T21:39:56.265Z,31.60
2019-04-16T21:42:27.439Z,32.00
2019-04-16T21:44:58.475Z,32.10
2019-04-16T21:47:29.575Z,32.00
2019-04-16T21:50:00.856Z,31.80
2019-04-16T21:52:32.084Z,31.70
2019-04-16T21:55:04.682Z,31.80
2019-04-16T21:57:35.782Z,32.10
2019-04-16T22:00:11.175Z,32.40
2019-04-16T22:02:44.849Z,32.30
2019-04-16T22:05:17.720Z,32.50
2019-04-16T22:07:49.035Z,32.50
2019-04-16T22:10:20.041Z,32.50
2019-04-16T22:12:51.464Z,32.70
2019-04-16T22:15:25.172Z,32.70
2019-04-16T22:17:54.751Z,33.00
2019-04-16T22:20:26.091Z,33.30
2019-04-16T22:22:57.014Z,33.30
2019-04-16T22:25:27.793Z,33.30
2019-04-16T22:27:58.524Z,33.00
2019-04-16T22:30:29.824Z,33.10
2019-04-16T22:33:04.982Z,33.10
2019-04-16T22:35:35.248Z,32.90
2019-04-16T22:38:06.494Z,32.80
2019-04-16T22:40:56.144Z,32.80
2019-04-16T22:43:44.571Z,32.50
2019-04-16T22:46:40.411Z,32.00
2019-04-16T22:49:12.072Z,31.40
2019-04-16T22:51:43.199Z,30.70
2019-04-16T22:54:14.792Z,30.00
2019-04-16T22:56:51.519Z,29.70
2019-04-16T22:59:22.400Z,29.50
2019-04-16T23:01:53.619Z,29.40
2019-04-16T23:04:25.968Z,29.30
2019-04-16T23:06:57.569Z,29.00
2019-04-16T23:09:31.052Z,28.90
2019-04-16T23:12:02.156Z,28.90
2019-04-16T23:14:34.841Z,29.00
2019-04-16T23:17:06.705Z,29.10
2019-04-16T23:19:37.436Z,29.20
2019-04-16T23:22:08.640Z,29.20
2019-04-16T23:24:39.703Z,29.10
2019-04-16T23:27:10.993Z,29.10
2019-04-16T23:29:47.312Z,29.10
2019-04-16T23:32:14.439Z,29.30
2019-04-16T23:34:45.558Z,29.20
2019-04-16T23:37:22.985Z,29.10
2019-04-16T23:39:50.555Z,29.40
2019-04-16T23:42:21.844Z,29.00
2019-04-16T23:45:10.659Z,29.00
2019-04-16T23:48:01.032Z,28.90
2019-04-16T23:50:51.172Z,28.90
2019-04-16T23:53:43.128Z,29.00
2019-04-16T23:56:35.855Z,29.00
2019-04-16T23:59:14.138Z,29.10
